Time;durP1;ratioP1;P1;durP2;ratioP2;P2;SDS_P1;SDS_P2;PMS_P1;PMS_P2;Temp;Humidity;BMP_temperature;BMP_pressure;BME280_temperature;BME280_humidity;BME280_pressure;Samples;Min_cycle;Max_cycle;Signal;HPM_P1;HPM_P2
2023/08/31 00:01:42;;;;;;;3.00;1.85;;;14.50;91.50;;;;;;5085485;28;20068;-80
2023/08/31 00:04:08;;;;;;;2.97;2.05;;;14.50;91.50;;;;;;5137354;28;20043;-80
2023/08/31 00:06:34;;;;;;;3.53;2.00;;;14.40;91.60;;;;;;5119355;28;20016;-80
2023/08/31 00:08:59;;;;;;;2.50;1.80;;;14.40;91.60;;;;;;5102078;28;20103;-80
2023/08/31 00:11:26;;;;;;;2.60;1.83;;;14.50;91.70;;;;;;5102083;28;20020;-81
2023/08/31 00:13:52;;;;;;;3.75;2.00;;;14.50;91.60;;;;;;5119177;28;20039;-80
2023/08/31 00:16:23;;;;;;;3.40;2.15;;;14.50;91.60;;;;;;5118990;28;20051;-79
2023/08/31 00:18:49;;;;;;;2.27;1.90;;;14.50;91.50;;;;;;5118812;28;20099;-80
2023/08/31 00:21:14;;;;;;;2.58;2.00;;;14.40;91.60;;;;;;5085039;28;20285;-80
2023/08/31 00:23:40;;;;;;;7.07;2.47;;;14.30;91.70;;;;;;5085094;28;20127;-80
2023/08/31 00:26:06;;;;;;;4.03;1.95;;;14.30;92.20;;;;;;5101984;28;20035;-79
2023/08/31 00:28:32;;;;;;;4.60;2.30;;;14.30;91.90;;;;;;5101875;28;20020;-80
2023/08/31 00:31:03;;;;;;;3.95;2.45;;;14.30;92.00;;;;;;5118792;28;20027;-80
2023/08/31 00:33:29;;;;;;;4.35;2.55;;;14.20;92.20;;;;;;5102053;28;20028;-80
2023/08/31 00:35:56;;;;;;;4.55;2.50;;;14.20;92.60;;;;;;5118615;28;20042;-80
2023/08/31 00:38:21;;;;;;;3.25;2.42;;;14.10;92.40;;;;;;5101919;28;20020;-80
2023/08/31 00:40:47;;;;;;;4.60;2.67;;;14.10;92.50;;;;;;5117809;28;20039;-80
2023/08/31 00:43:17;;;;;;;3.95;2.55;;;14.00;92.70;;;;;;5136371;28;20024;-80
2023/08/31 00:45:44;;;;;;;4.50;2.47;;;14.10;92.80;;;;;;5119120;28;20012;-80
2023/08/31 00:48:12;;;;;;;4.57;2.70;;;14.10;92.80;;;;;;5118164;28;20048;-80
2023/08/31 00:50:37;;;;;;;5.72;2.70;;;14.00;92.90;;;;;;5118573;28;20030;-80
2023/08/31 00:53:03;;;;;;;5.25;3.13;;;14.00;92.90;;;;;;5101262;28;20024;-80
2023/08/31 00:55:29;;;;;;;4.10;2.72;;;14.00;93.00;;;;;;5118183;28;20028;-80
2023/08/31 00:57:55;;;;;;;4.75;3.05;;;14.00;93.40;;;;;;5118251;28;20027;-80
2023/08/31 01:00:28;;;;;;;7.50;3.15;;;14.00;93.10;;;;;;5084735;28;20047;-80
2023/08/31 01:03:01;;;;;;;4.47;2.85;;;14.00;93.20;;;;;;5117984;28;20031;-80
2023/08/31 01:05:55;;;;;;;5.80;3.40;;;13.90;93.30;;;;;;5118045;28;20022;-79
2023/08/31 01:09:07;;;;;;;6.63;3.15;;;13.90;93.40;;;;;;5117945;28;20019;-80
2023/08/31 01:11:41;;;;;;;6.00;3.22;;;13.90;93.30;;;;;;5081648;28;20034;-80
2023/08/31 01:14:15;;;;;;;7.45;3.20;;;13.90;93.30;;;;;;5117730;28;20020;-80
2023/08/31 01:16:43;;;;;;;6.45;4.30;;;13.90;93.30;;;;;;5117655;28;20043;-80
2023/08/31 01:19:31;;;;;;;6.97;4.10;;;13.80;93.60;;;;;;5135712;28;20032;-80
2023/08/31 01:22:03;;;;;;;5.63;3.95;;;13.80;93.70;;;;;;5117561;28;20015;-80
2023/08/31 01:24:30;;;;;;;6.65;3.90;;;13.90;93.70;;;;;;5117489;28;20020;-81
2023/08/31 01:26:56;;;;;;;7.47;3.90;;;13.90;93.80;;;;;;5135532;28;20073;-80
2023/08/31 01:29:23;;;;;;;6.03;4.10;;;13.90;93.80;;;;;;5100797;28;20027;-81
2023/08/31 01:31:48;;;;;;;7.07;4.45;;;13.90;93.80;;;;;;5100682;28;20040;-81
2023/08/31 01:34:14;;;;;;;8.38;5.03;;;13.90;93.80;;;;;;5083743;28;20085;-80
2023/08/31 01:36:46;;;;;;;7.38;4.43;;;13.90;93.90;;;;;;5135445;28;20048;-81
2023/08/31 01:39:27;;;;;;;6.32;4.45;;;13.90;93.80;;;;;;5135570;28;20019;-80
2023/08/31 01:42:00;;;;;;;8.40;5.00;;;13.90;93.90;;;;;;5135347;28;20049;-80
2023/08/31 01:44:28;;;;;;;9.88;5.07;;;13.90;94.10;;;;;;5135440;28;20023;-80
2023/08/31 01:46:57;;;;;;;10.55;5.47;;;13.90;94.10;;;;;;5135246;28;20026;-81
2023/08/31 01:49:24;;;;;;;9.88;6.30;;;14.00;94.30;;;;;;5116885;28;20050;-81
2023/08/31 01:51:49;;;;;;;10.77;5.95;;;13.90;94.30;;;;;;5099433;28;20089;-80
2023/08/31 01:54:15;;;;;;;11.30;6.10;;;14.00;94.30;;;;;;5117151;28;20032;-80
2023/08/31 01:56:41;;;;;;;11.73;6.30;;;13.90;94.40;;;;;;5100425;28;20026;-80
2023/08/31 01:59:07;;;;;;;9.25;5.55;;;13.90;94.60;;;;;;5100139;28;20028;-81
2023/08/31 02:01:33;;;;;;;10.20;5.85;;;13.90;94.80;;;;;;5116868;28;20020;-81
2023/08/31 02:03:58;;;;;;;11.18;6.25;;;13.90;94.80;;;;;;5134958;28;20020;-81
2023/08/31 02:06:24;;;;;;;9.10;6.07;;;14.00;94.90;;;;;;5100063;28;20048;-81
2023/08/31 02:08:50;;;;;;;10.65;6.47;;;13.90;94.90;;;;;;5099884;28;20042;-82
2023/08/31 02:11:15;;;;;;;10.23;5.78;;;14.00;94.90;;;;;;5083237;28;20007;-81
2023/08/31 02:13:42;;;;;;;11.18;6.40;;;13.90;95.30;;;;;;5116770;28;20032;-81
2023/08/31 02:16:07;;;;;;;12.60;6.45;;;13.90;95.30;;;;;;5099726;28;20091;-81
2023/08/31 02:18:33;;;;;;;10.82;6.20;;;13.80;95.80;;;;;;5116525;28;20066;-81
2023/08/31 02:20:59;;;;;;;12.90;6.50;;;13.90;95.30;;;;;;5116628;28;20040;-81
2023/08/31 02:23:24;;;;;;;9.68;6.40;;;13.90;95.20;;;;;;5099835;28;20028;-81
2023/08/31 02:25:50;;;;;;;11.95;6.60;;;13.90;95.50;;;;;;5116637;28;20059;-81
2023/08/31 02:28:17;;;;;;;9.80;6.18;;;13.90;95.50;;;;;;5134505;28;20027;-81
2023/08/31 02:30:44;;;;;;;9.80;6.43;;;13.90;95.40;;;;;;5116533;28;20119;-81
2023/08/31 02:33:10;;;;;;;10.77;6.10;;;13.90;95.30;;;;;;5116731;28;20028;-80
2023/08/31 02:35:35;;;;;;;11.88;6.68;;;13.90;95.50;;;;;;5099593;28;20035;-80
2023/08/31 02:38:02;;;;;;;12.65;6.35;;;13.90;95.50;;;;;;5082663;28;20032;-80
2023/08/31 02:40:27;;;;;;;9.30;6.18;;;13.80;95.60;;;;;;5116579;28;20076;-80
2023/08/31 02:42:53;;;;;;;11.15;6.40;;;13.90;95.50;;;;;;5116372;28;20035;-81
2023/08/31 02:45:19;;;;;;;9.85;6.47;;;13.90;95.50;;;;;;5116336;28;20027;-80
2023/08/31 02:47:44;;;;;;;10.85;6.90;;;13.90;95.60;;;;;;5115964;28;20044;-80
2023/08/31 02:50:10;;;;;;;9.60;6.25;;;13.90;95.80;;;;;;5099423;28;20043;-81
2023/08/31 02:52:36;;;;;;;11.57;6.63;;;13.90;95.60;;;;;;5116115;28;20027;-81
2023/08/31 02:55:02;;;;;;;10.95;6.65;;;13.90;95.60;;;;;;5082482;28;20032;-81
2023/08/31 02:57:27;;;;;;;11.25;6.55;;;13.90;95.50;;;;;;5099236;28;20035;-81
2023/08/31 02:59:53;;;;;;;8.77;6.22;;;13.90;95.70;;;;;;5116047;28;20024;-81
2023/08/31 03:02:19;;;;;;;10.15;6.15;;;13.90;95.70;;;;;;5116009;28;20122;-81
2023/08/31 03:04:44;;;;;;;9.38;6.22;;;13.90;95.70;;;;;;5103305;28;20027;-81
2023/08/31 03:07:13;;;;;;;9.73;5.78;;;13.90;95.70;;;;;;5138364;28;20040;-81
2023/08/31 03:09:39;;;;;;;12.95;7.05;;;13.90;95.70;;;;;;5087374;28;20049;-81
2023/08/31 03:12:05;;;;;;;10.98;6.47;;;14.00;95.60;;;;;;5103252;28;20024;-81
2023/08/31 03:14:31;;;;;;;10.38;5.78;;;13.90;95.70;;;;;;5120128;28;20053;-81
2023/08/31 03:16:56;;;;;;;9.40;6.00;;;13.90;95.60;;;;;;5103427;28;20024;-80
2023/08/31 03:19:22;;;;;;;10.88;6.25;;;13.90;95.50;;;;;;5103085;28;20128;-80
2023/08/31 03:21:48;;;;;;;10.32;6.53;;;13.90;95.40;;;;;;5103060;28;20032;-81
2023/08/31 03:24:13;;;;;;;10.93;6.65;;;13.90;95.40;;;;;;5103085;28;20023;-81
2023/08/31 03:26:39;;;;;;;10.10;6.22;;;13.80;95.60;;;;;;5103064;28;20020;-80
2023/08/31 03:29:05;;;;;;;12.20;6.40;;;13.80;95.50;;;;;;5103026;28;20024;-80
2023/08/31 03:31:31;;;;;;;9.88;5.85;;;13.80;95.60;;;;;;5120020;28;20039;-80
2023/08/31 03:33:57;;;;;;;10.15;6.53;;;13.70;95.70;;;;;;5119720;28;20035;-81
2023/08/31 03:36:23;;;;;;;11.00;6.57;;;13.80;95.60;;;;;;5086064;28;20015;-80
2023/08/31 03:38:49;;;;;;;11.23;6.43;;;13.80;95.70;;;;;;5102822;28;20038;-80
2023/08/31 03:41:15;;;;;;;10.00;6.70;;;13.80;95.70;;;;;;5137529;28;20028;-80
2023/08/31 03:43:41;;;;;;;11.25;6.85;;;13.70;95.90;;;;;;5119582;28;20065;-81
2023/08/31 03:46:06;;;;;;;10.23;6.28;;;13.60;96.00;;;;;;5102545;28;20032;-80
2023/08/31 03:48:32;;;;;;;12.98;7.40;;;13.60;95.90;;;;;;5102506;28;20052;-81
2023/08/31 03:50:58;;;;;;;11.77;6.53;;;13.60;96.00;;;;;;5102632;28;20057;-81
2023/08/31 03:53:23;;;;;;;9.50;6.85;;;13.60;96.20;;;;;;5102470;28;20032;-80
2023/08/31 03:55:49;;;;;;;11.73;7.15;;;13.60;96.10;;;;;;5137541;28;20048;-80
2023/08/31 03:58:15;;;;;;;14.05;7.32;;;13.50;96.20;;;;;;5102547;28;20019;-80
2023/08/31 04:00:41;;;;;;;12.88;8.05;;;13.50;96.20;;;;;;5085640;28;20020;-80
2023/08/31 04:03:08;;;;;;;13.88;8.05;;;13.40;96.40;;;;;;5119189;28;20038;-81
2023/08/31 04:05:34;;;;;;;13.18;7.43;;;13.50;96.30;;;;;;5119157;28;20042;-81
2023/08/31 04:08:00;;;;;;;12.35;7.97;;;13.50;96.10;;;;;;5119384;28;20027;-81
2023/08/31 04:10:26;;;;;;;14.93;8.20;;;13.50;96.10;;;;;;5137239;28;20031;-80
2023/08/31 04:12:52;;;;;;;13.90;8.43;;;13.50;96.10;;;;;;5119077;28;20028;-80
2023/08/31 04:15:18;;;;;;;13.88;8.25;;;13.50;96.00;;;;;;5101101;28;20060;-81
2023/08/31 04:17:44;;;;;;;14.02;8.85;;;13.50;96.00;;;;;;5102247;28;20116;-81
2023/08/31 04:20:11;;;;;;;15.63;9.07;;;13.50;96.10;;;;;;5118877;28;20032;-81
2023/08/31 04:22:36;;;;;;;14.35;8.63;;;13.50;96.10;;;;;;5102044;28;20048;-81
2023/08/31 04:25:02;;;;;;;16.98;9.27;;;13.50;96.00;;;;;;5101774;28;20031;-81
2023/08/31 04:27:30;;;;;;;17.58;9.65;;;13.40;96.10;;;;;;5102140;28;20035;-81
2023/08/31 04:29:57;;;;;;;15.90;9.13;;;13.40;96.10;;;;;;5119215;28;20485;-81
2023/08/31 04:32:22;;;;;;;16.73;9.13;;;13.40;96.20;;;;;;5101974;28;20028;-81
2023/08/31 04:34:48;;;;;;;15.27;8.73;;;13.40;96.20;;;;;;5118537;28;20060;-81
2023/08/31 04:37:14;;;;;;;18.38;8.80;;;13.40;96.40;;;;;;5085116;28;20026;-81
2023/08/31 04:39:40;;;;;;;17.35;9.43;;;13.40;96.20;;;;;;5101851;28;20485;-82
2023/08/31 04:42:05;;;;;;;15.90;9.20;;;13.30;96.30;;;;;;5101550;28;20023;-81
2023/08/31 04:44:31;;;;;;;14.68;8.65;;;13.40;96.20;;;;;;5118588;28;20019;-81
2023/08/31 04:46:56;;;;;;;15.88;8.55;;;13.40;96.20;;;;;;5101582;28;20095;-81
2023/08/31 04:49:23;;;;;;;15.15;8.68;;;13.40;96.20;;;;;;5084703;28;20047;-81
2023/08/31 04:51:51;;;;;;;15.25;9.48;;;13.30;96.20;;;;;;5101544;28;20023;-80
2023/08/31 04:54:16;;;;;;;13.75;8.43;;;13.30;96.30;;;;;;5118067;28;20043;-81
2023/08/31 04:56:42;;;;;;;12.80;8.52;;;13.30;96.10;;;;;;5136185;28;20039;-79
2023/08/31 04:59:08;;;;;;;13.93;8.13;;;13.30;96.20;;;;;;5118262;28;20053;-81
2023/08/31 05:01:33;;;;;;;14.95;8.43;;;13.30;96.20;;;;;;5118252;28;20024;-81
2023/08/31 05:03:59;;;;;;;13.90;8.23;;;13.40;96.20;;;;;;5118102;28;20027;-82
2023/08/31 05:06:25;;;;;;;13.63;8.15;;;13.30;96.20;;;;;;5103346;28;20024;-81
2023/08/31 05:08:51;;;;;;;13.68;8.00;;;13.30;96.30;;;;;;5118236;28;20050;-81
2023/08/31 05:11:16;;;;;;;15.45;8.23;;;13.30;96.30;;;;;;5136049;28;20028;-81
2023/08/31 05:13:42;;;;;;;12.82;7.93;;;13.30;96.30;;;;;;5117865;28;20028;-81
2023/08/31 05:16:08;;;;;;;18.27;8.57;;;13.30;96.10;;;;;;5135854;28;20031;-81
2023/08/31 05:18:34;;;;;;;12.95;7.72;;;13.30;96.20;;;;;;5117826;28;20024;-81
2023/08/31 05:21:18;;;;;;;13.18;8.18;;;13.30;96.10;;;;;;5100731;28;20039;-81
2023/08/31 05:23:44;;;;;;;14.98;8.73;;;13.40;96.10;;;;;;5135782;28;20032;-81
2023/08/31 05:26:10;;;;;;;15.60;8.52;;;13.30;96.20;;;;;;5100550;28;20026;-81
2023/08/31 05:28:35;;;;;;;14.80;8.77;;;13.30;96.10;;;;;;5100912;28;20027;-81
2023/08/31 05:31:05;;;;;;;13.85;8.15;;;13.30;96.20;;;;;;5135584;28;20020;-80
2023/08/31 05:33:33;;;;;;;14.57;8.15;;;13.30;96.10;;;;;;5135596;28;20028;-80
2023/08/31 05:36:03;;;;;;;16.17;8.25;;;13.40;96.00;;;;;;5135428;28;20103;-81
2023/08/31 05:38:29;;;;;;;16.88;8.95;;;13.40;96.10;;;;;;5135448;28;20050;-81
2023/08/31 05:41:02;;;;;;;14.82;8.25;;;13.50;96.10;;;;;;5117324;28;20019;-81
2023/08/31 05:43:28;;;;;;;13.75;8.40;;;13.50;96.10;;;;;;5117374;28;20020;-81
2023/08/31 05:45:53;;;;;;;13.13;7.75;;;13.50;96.30;;;;;;5117277;28;20049;-81
2023/08/31 05:48:19;;;;;;;13.18;8.25;;;13.50;96.30;;;;;;5100103;28;20046;-80
2023/08/31 05:50:45;;;;;;;13.20;8.07;;;13.50;96.30;;;;;;5117131;28;20028;-81
2023/08/31 05:53:10;;;;;;;14.93;7.80;;;13.50;96.30;;;;;;5100263;28;20039;-81
2023/08/31 05:55:36;;;;;;;13.93;8.23;;;13.50;96.40;;;;;;5117283;28;20032;-81
2023/08/31 05:58:02;;;;;;;12.73;7.05;;;13.50;96.30;;;;;;5117399;28;20023;-82
2023/08/31 06:00:28;;;;;;;13.63;7.50;;;13.50;96.70;;;;;;5099932;28;20030;-81
2023/08/31 06:02:53;;;;;;;13.82;6.88;;;13.50;96.50;;;;;;5100188;28;20031;-81
2023/08/31 06:05:19;;;;;;;14.05;7.43;;;13.50;96.60;;;;;;5134867;28;20027;-81
2023/08/31 06:07:45;;;;;;;11.82;6.97;;;13.50;96.50;;;;;;5116867;28;20026;-81
2023/08/31 06:10:11;;;;;;;12.43;6.75;;;13.50;96.60;;;;;;5099763;28;20035;-81
2023/08/31 06:12:36;;;;;;;12.40;6.45;;;13.50;96.70;;;;;;5134872;28;20053;-81
2023/08/31 06:15:03;;;;;;;11.73;7.40;;;13.60;96.70;;;;;;5134692;28;20030;-81
2023/08/31 06:17:28;;;;;;;11.43;7.03;;;13.60;96.80;;;;;;5099673;28;20024;-82
2023/08/31 06:19:54;;;;;;;11.32;7.05;;;13.60;97.00;;;;;;5099738;28;20091;-81
2023/08/31 06:22:21;;;;;;;11.43;6.88;;;13.60;96.90;;;;;;5099561;28;20030;-82
2023/08/31 06:24:47;;;;;;;13.98;6.85;;;13.70;97.00;;;;;;5116930;28;20023;-81
2023/08/31 06:27:13;;;;;;;12.98;6.53;;;13.70;97.10;;;;;;5116538;28;20023;-81
2023/08/31 06:29:38;;;;;;;13.75;6.75;;;13.80;97.00;;;;;;5099625;28;20031;-81
2023/08/31 06:32:04;;;;;;;11.43;6.72;;;13.80;97.00;;;;;;5116621;28;20043;-82
2023/08/31 06:34:30;;;;;;;11.88;6.35;;;13.80;97.10;;;;;;5082870;28;20023;-82
2023/08/31 06:36:58;;;;;;;12.27;6.53;;;13.80;97.20;;;;;;5099379;28;20008;-82
2023/08/31 06:39:24;;;;;;;11.27;6.80;;;13.90;97.10;;;;;;5115879;28;20099;-82
2023/08/31 06:41:49;;;;;;;10.88;6.68;;;13.90;97.00;;;;;;5099387;28;20027;-82
2023/08/31 06:44:16;;;;;;;12.98;7.13;;;14.00;97.00;;;;;;5116273;28;20045;-82
2023/08/31 06:46:42;;;;;;;12.52;6.57;;;14.10;97.20;;;;;;5116320;28;20031;-83
2023/08/31 06:49:09;;;;;;;10.15;6.13;;;14.20;97.30;;;;;;5134103;28;20051;-83
2023/08/31 06:51:34;;;;;;;12.88;6.40;;;14.20;97.40;;;;;;5134427;28;20024;-82
2023/08/31 06:54:05;;;;;;;11.40;5.95;;;14.20;97.30;;;;;;5099616;28;20046;-81
2023/08/31 06:56:33;;;;;;;9.23;5.93;;;14.20;97.00;;;;;;5134207;28;20039;-81
2023/08/31 06:58:58;;;;;;;12.35;6.10;;;14.20;96.90;;;;;;5116484;28;20024;-81
2023/08/31 07:01:24;;;;;;;8.68;5.82;;;14.20;96.70;;;;;;5099234;28;20038;-81
2023/08/31 07:03:50;;;;;;;9.63;5.78;;;14.20;96.80;;;;;;5116164;28;20030;-81
2023/08/31 07:06:15;;;;;;;10.55;6.35;;;14.30;97.00;;;;;;5099386;28;20027;-82
2023/08/31 07:08:45;;;;;;;11.32;6.40;;;14.30;97.20;;;;;;5134115;28;20032;-82
2023/08/31 07:11:11;;;;;;;9.73;6.55;;;14.50;97.30;;;;;;5099742;28;20030;-81
2023/08/31 07:13:36;;;;;;;11.73;6.20;;;14.50;97.20;;;;;;5116090;28;20012;-81
2023/08/31 07:16:02;;;;;;;9.65;6.10;;;14.60;97.00;;;;;;5099367;28;20024;-81
2023/08/31 07:18:28;;;;;;;11.38;6.18;;;14.70;97.10;;;;;;5099142;28;20024;-81
2023/08/31 07:20:53;;;;;;;11.57;6.03;;;14.70;97.00;;;;;;5116024;28;20054;-82
2023/08/31 07:23:19;;;;;;;8.88;5.38;;;14.70;96.60;;;;;;5099153;28;20024;-82
2023/08/31 07:25:45;;;;;;;10.23;5.68;;;14.70;96.60;;;;;;5116037;28;20023;-82
2023/08/31 07:28:11;;;;;;;10.13;6.38;;;14.80;96.80;;;;;;5099824;28;20020;-83
2023/08/31 07:30:37;;;;;;;12.25;6.25;;;14.90;97.00;;;;;;5133891;28;20423;-82
2023/08/31 07:33:03;;;;;;;12.45;5.88;;;14.90;96.50;;;;;;5099267;28;20042;-82
2023/08/31 07:35:30;;;;;;;8.75;5.82;;;15.00;96.50;;;;;;5098875;28;20027;-82
2023/08/31 07:37:56;;;;;;;9.50;5.97;;;15.00;96.20;;;;;;5098960;28;20023;-82
2023/08/31 07:40:21;;;;;;;10.32;5.95;;;15.00;96.50;;;;;;5133653;28;20027;-82
2023/08/31 07:42:47;;;;;;;9.95;5.43;;;15.00;96.60;;;;;;5098704;28;20554;-83
2023/08/31 07:45:13;;;;;;;8.77;5.57;;;15.10;96.50;;;;;;5098800;28;20099;-81
2023/08/31 07:47:38;;;;;;;9.82;6.10;;;15.10;96.30;;;;;;5098746;28;20095;-81
2023/08/31 07:50:04;;;;;;;11.07;6.30;;;15.10;96.40;;;;;;5118306;28;20052;-82
2023/08/31 07:52:30;;;;;;;9.55;5.93;;;15.20;96.50;;;;;;5102557;28;20094;-82
2023/08/31 07:54:56;;;;;;;11.48;6.05;;;15.30;96.70;;;;;;5102403;28;20039;-81
2023/08/31 07:57:22;;;;;;;9.35;5.72;;;15.50;96.70;;;;;;5102562;28;20028;-82
2023/08/31 07:59:47;;;;;;;11.90;6.00;;;15.60;96.40;;;;;;5102508;28;20019;-82
2023/08/31 08:02:13;;;;;;;11.90;5.65;;;15.60;96.20;;;;;;5137214;28;20081;-82
2023/08/31 08:04:38;;;;;;;10.60;6.05;;;15.70;96.00;;;;;;5102330;28;20054;-82
2023/08/31 08:07:04;;;;;;;8.40;5.75;;;15.80;96.30;;;;;;5085578;28;20027;-82
2023/08/31 08:09:30;;;;;;;9.57;5.38;;;15.90;96.10;;;;;;5102308;28;20028;-81
2023/08/31 08:11:56;;;;;;;9.13;5.60;;;16.10;95.90;;;;;;5118995;28;20061;-83
2023/08/31 08:14:21;;;;;;;11.05;5.70;;;16.10;95.80;;;;;;5137035;28;20028;-82
2023/08/31 08:16:47;;;;;;;12.35;6.55;;;16.20;95.50;;;;;;5085347;28;20089;-82
2023/08/31 08:19:13;;;;;;;12.43;6.72;;;16.30;95.60;;;;;;5119017;28;20031;-82
2023/08/31 08:21:38;;;;;;;10.13;6.50;;;16.40;94.60;;;;;;5118965;28;20031;-82
2023/08/31 08:24:04;;;;;;;14.23;7.25;;;16.40;94.50;;;;;;5101904;28;20032;-82
2023/08/31 08:26:29;;;;;;;10.45;6.03;;;16.50;94.50;;;;;;5118840;28;20024;-81
2023/08/31 08:28:55;;;;;;;7.75;5.18;;;16.60;94.80;;;;;;5101877;28;20028;-81
2023/08/31 08:31:21;;;;;;;8.05;5.15;;;16.60;94.60;;;;;;5118942;28;20027;-83
2023/08/31 08:33:46;;;;;;;6.05;4.60;;;16.70;94.70;;;;;;5101829;28;20105;-82
2023/08/31 08:36:12;;;;;;;7.68;4.65;;;16.80;94.00;;;;;;5136823;28;20044;-82
2023/08/31 08:38:38;;;;;;;10.32;4.68;;;16.90;94.30;;;;;;5118728;28;20024;-82
2023/08/31 08:41:07;;;;;;;7.03;4.40;;;17.00;93.70;;;;;;5101568;28;20542;-81
2023/08/31 08:43:34;;;;;;;6.40;4.25;;;17.10;93.20;;;;;;5101642;28;20027;-82
2023/08/31 08:46:05;;;;;;;9.52;4.35;;;17.10;92.90;;;;;;5136464;28;20023;-81
2023/08/31 08:48:34;;;;;;;8.23;4.22;;;17.10;92.60;;;;;;5136264;28;20059;-81
2023/08/31 08:51:02;;;;;;;9.38;4.20;;;17.20;92.80;;;;;;5118235;28;20043;-83
2023/08/31 08:53:28;;;;;;;9.77;4.38;;;17.30;92.50;;;;;;5118691;28;20047;-83
2023/08/31 08:55:53;;;;;;;8.35;4.22;;;17.40;92.80;;;;;;5101343;28;20027;-81
2023/08/31 08:58:19;;;;;;;6.82;3.45;;;17.50;92.60;;;;;;5101435;28;20050;-83
2023/08/31 09:00:47;;;;;;;8.13;4.55;;;17.50;92.10;;;;;;5117748;28;20023;-82
2023/08/31 09:03:13;;;;;;;7.80;3.67;;;17.50;91.50;;;;;;5118040;28;20038;-82
2023/08/31 09:05:39;;;;;;;7.53;4.00;;;17.60;91.70;;;;;;5118090;28;20012;-82
2023/08/31 09:08:09;;;;;;;8.27;4.13;;;17.70;91.90;;;;;;5101202;28;20475;-83
2023/08/31 09:10:40;;;;;;;8.68;4.50;;;17.70;91.60;;;;;;5117996;28;20023;-82
2023/08/31 09:13:11;;;;;;;8.85;4.30;;;17.80;90.60;;;;;;5135992;28;20035;-81
2023/08/31 09:15:47;;;;;;;6.25;4.22;;;17.90;91.40;;;;;;5118127;28;20027;-82
2023/08/31 09:18:26;;;;;;;6.07;4.07;;;17.90;91.10;;;;;;5135935;28;20057;-83
2023/08/31 09:20:52;;;;;;;5.40;3.17;;;18.00;90.90;;;;;;5135723;28;20024;-82
2023/08/31 09:23:18;;;;;;;6.20;3.63;;;18.20;91.30;;;;;;5117878;28;20024;-81
2023/08/31 09:25:54;;;;;;;7.80;4.10;;;18.20;90.20;;;;;;5135608;28;20053;-80
2023/08/31 09:28:27;;;;;;;8.65;3.75;;;18.10;89.60;;;;;;5135623;28;20068;-81
2023/08/31 09:31:02;;;;;;;7.05;3.60;;;18.00;89.80;;;;;;5117614;28;20079;-82
2023/08/31 09:33:27;;;;;;;6.40;3.25;;;18.10;90.60;;;;;;5117417;28;20098;-82
2023/08/31 09:35:59;;;;;;;7.20;2.60;;;18.30;89.30;;;;;;5100648;28;20028;-81
2023/08/31 09:38:25;;;;;;;5.65;3.17;;;18.40;87.60;;;;;;5135433;28;20057;-82
2023/08/31 09:40:51;;;;;;;6.95;3.25;;;18.40;85.70;;;;;;5135397;28;20031;-83
2023/08/31 09:43:22;;;;;;;7.35;3.45;;;18.40;85.70;;;;;;5117439;28;20011;-83
2023/08/31 09:45:49;;;;;;;9.38;3.70;;;18.50;87.20;;;;;;5117837;28;20039;-83
2023/08/31 09:48:15;;;;;;;4.55;3.03;;;18.50;86.70;;;;;;5135392;28;20107;-84
2023/08/31 09:50:43;;;;;;;5.47;3.00;;;18.60;87.60;;;;;;5117350;28;20138;-84
2023/08/31 09:53:10;;;;;;;4.82;2.80;;;18.70;87.10;;;;;;5117151;28;20016;-82
2023/08/31 09:55:39;;;;;;;3.38;2.28;;;18.70;86.10;;;;;;5100184;28;20027;-82
2023/08/31 09:58:07;;;;;;;4.85;2.35;;;18.80;85.80;;;;;;5135113;28;20028;-82
2023/08/31 10:00:35;;;;;;;6.05;2.95;;;18.70;86.10;;;;;;5135062;28;20054;-82
2023/08/31 10:03:04;;;;;;;6.28;2.85;;;18.70;84.10;;;;;;5116848;28;20024;-81
2023/08/31 10:05:31;;;;;;;5.90;3.08;;;18.70;83.80;;;;;;5116804;28;20023;-83
2023/08/31 10:07:58;;;;;;;4.05;2.75;;;18.60;84.10;;;;;;5134857;28;20023;-83
2023/08/31 10:10:24;;;;;;;4.28;2.40;;;18.70;83.10;;;;;;5135024;28;20016;-83
2023/08/31 10:12:51;;;;;;;4.15;2.42;;;18.70;82.50;;;;;;5133932;28;20020;-82
2023/08/31 10:15:18;;;;;;;5.85;2.30;;;18.70;81.00;;;;;;5134763;28;20024;-83
2023/08/31 10:17:44;;;;;;;7.32;2.67;;;18.60;82.00;;;;;;5134780;28;20047;-83
2023/08/31 10:20:12;;;;;;;4.85;2.35;;;18.60;81.80;;;;;;5083127;28;20035;-82
2023/08/31 10:22:38;;;;;;;6.10;2.42;;;18.60;82.30;;;;;;5116693;28;20047;-83
2023/08/31 10:25:06;;;;;;;4.57;2.38;;;18.60;82.60;;;;;;5099796;28;20023;-82
2023/08/31 10:27:42;;;;;;;3.42;2.50;;;18.50;82.70;;;;;;5099742;28;20039;-84
2023/08/31 10:30:28;;;;;;;3.60;2.35;;;18.60;83.30;;;;;;5117500;28;20038;-83
2023/08/31 10:33:09;;;;;;;6.05;2.63;;;18.90;83.70;;;;;;5134579;28;20083;-83
2023/08/31 10:35:55;;;;;;;7.25;2.97;;;19.00;80.30;;;;;;5116330;28;20095;-82
2023/08/31 10:38:31;;;;;;;5.50;3.05;;;19.00;81.90;;;;;;5134460;28;20034;-83
2023/08/31 10:41:00;;;;;;;5.65;2.85;;;19.00;81.70;;;;;;5134434;28;20028;-83
2023/08/31 10:43:26;;;;;;;5.43;3.22;;;19.20;82.90;;;;;;5116280;28;20035;-83
2023/08/31 10:45:52;;;;;;;5.00;2.53;;;19.30;82.10;;;;;;5116290;28;20035;-81
2023/08/31 10:48:18;;;;;;;6.40;2.95;;;19.40;82.00;;;;;;5115829;28;20031;-81
2023/08/31 10:50:47;;;;;;;6.43;3.10;;;19.50;80.90;;;;;;5116563;28;20038;-83
2023/08/31 10:53:12;;;;;;;4.03;2.83;;;19.50;80.10;;;;;;5134087;28;20023;-82
2023/08/31 10:55:52;;;;;;;6.45;2.80;;;19.50;79.10;;;;;;5099241;28;20035;-82
2023/08/31 10:58:18;;;;;;;4.68;2.60;;;19.50;78.20;;;;;;5134126;28;20020;-82
2023/08/31 11:00:56;;;;;;;4.82;2.60;;;19.50;77.00;;;;;;5117227;28;20039;-81
2023/08/31 11:03:22;;;;;;;5.25;2.58;;;19.40;75.40;;;;;;5135746;28;20016;-83
2023/08/31 11:05:52;;;;;;;5.25;2.78;;;19.40;76.90;;;;;;5118435;28;20136;-83
2023/08/31 11:08:27;;;;;;;4.43;2.40;;;19.50;78.30;;;;;;5134834;28;20023;-82
2023/08/31 11:10:53;;;;;;;6.70;2.10;;;19.60;75.60;;;;;;5099712;28;20031;-82
2023/08/31 11:13:23;;;;;;;3.63;2.30;;;19.60;76.00;;;;;;5100364;28;20047;-82
2023/08/31 11:15:49;;;;;;;4.45;2.15;;;19.70;76.00;;;;;;5134060;28;20087;-83
2023/08/31 11:18:17;;;;;;;5.38;2.63;;;19.80;77.60;;;;;;5115977;28;20114;-82
2023/08/31 11:20:43;;;;;;;5.13;2.40;;;20.00;77.00;;;;;;5134168;28;20069;-82
2023/08/31 11:23:09;;;;;;;4.72;2.40;;;20.00;76.40;;;;;;5134040;28;20023;-82
2023/08/31 11:25:35;;;;;;;4.10;2.70;;;20.10;78.30;;;;;;5137828;28;20027;-82
2023/08/31 11:28:07;;;;;;;4.07;2.85;;;20.10;74.30;;;;;;5119882;28;20475;-83
2023/08/31 11:30:34;;;;;;;4.82;2.95;;;19.90;75.60;;;;;;5119981;28;20027;-83
2023/08/31 11:33:07;;;;;;;6.32;2.92;;;19.80;75.80;;;;;;5119933;28;20020;-84
2023/08/31 11:35:42;;;;;;;4.90;2.40;;;19.80;76.80;;;;;;5138101;28;20049;-83
2023/08/31 11:38:08;;;;;;;6.85;2.30;;;19.80;76.00;;;;;;5137946;28;20016;-83
2023/08/31 11:40:35;;;;;;;3.90;2.60;;;19.90;75.80;;;;;;5119796;28;20039;-82
2023/08/31 11:43:00;;;;;;;6.93;2.78;;;19.90;77.30;;;;;;5120019;28;20088;-82
2023/08/31 11:45:28;;;;;;;5.55;2.90;;;19.90;78.60;;;;;;5137740;28;20023;-82
2023/08/31 11:47:55;;;;;;;3.95;2.60;;;19.80;79.70;;;;;;5102869;28;20024;-82
2023/08/31 11:50:21;;;;;;;4.47;2.72;;;19.80;80.60;;;;;;5102769;28;20055;-82
2023/08/31 11:52:48;;;;;;;6.53;3.03;;;19.80;81.10;;;;;;5137524;28;20058;-81
2023/08/31 11:55:17;;;;;;;6.60;2.80;;;19.80;81.50;;;;;;5119480;28;20061;-81
2023/08/31 11:57:51;;;;;;;4.35;3.35;;;19.70;82.10;;;;;;5137465;28;20016;-81
2023/08/31 12:00:19;;;;;;;4.88;3.40;;;19.60;82.20;;;;;;5137596;28;20023;-82
2023/08/31 12:02:48;;;;;;;4.35;3.20;;;19.50;82.60;;;;;;5103466;28;20038;-82
2023/08/31 12:05:14;;;;;;;6.15;3.10;;;19.50;82.70;;;;;;5103555;28;20046;-82
2023/08/31 12:07:41;;;;;;;5.72;3.50;;;19.40;83.10;;;;;;5102489;28;20027;-82
2023/08/31 12:10:07;;;;;;;4.95;3.17;;;19.50;83.50;;;;;;5137291;28;20020;-81
2023/08/31 12:12:34;;;;;;;4.72;2.95;;;19.40;83.60;;;;;;5137171;28;20027;-82
2023/08/31 12:15:03;;;;;;;7.00;2.90;;;19.40;83.90;;;;;;5102419;28;20027;-82
2023/08/31 12:17:32;;;;;;;4.20;2.60;;;19.40;83.80;;;;;;5137147;28;20020;-81
2023/08/31 12:20:05;;;;;;;5.70;2.83;;;19.40;83.70;;;;;;5102492;28;20023;-81
2023/08/31 12:22:31;;;;;;;5.55;2.80;;;19.30;84.50;;;;;;5118782;28;20020;-81
2023/08/31 12:24:56;;;;;;;6.40;2.97;;;19.20;85.90;;;;;;5101965;28;20503;-81
2023/08/31 12:27:22;;;;;;;5.03;3.17;;;19.00;86.70;;;;;;5118737;28;20028;-82
2023/08/31 12:29:49;;;;;;;7.18;3.80;;;18.90;87.20;;;;;;5136915;28;20034;-82
2023/08/31 12:32:15;;;;;;;5.03;3.28;;;18.80;88.10;;;;;;5102134;28;20119;-82
2023/08/31 12:34:40;;;;;;;7.30;4.45;;;18.80;89.20;;;;;;5118807;28;20024;-82
2023/08/31 12:37:07;;;;;;;5.10;3.30;;;18.80;89.70;;;;;;5084062;28;20038;-82
2023/08/31 12:39:32;;;;;;;6.32;3.20;;;18.70;90.00;;;;;;5119087;28;20031;-83
2023/08/31 12:41:59;;;;;;;6.05;3.65;;;18.70;90.00;;;;;;5101802;28;20027;-82
2023/08/31 12:44:25;;;;;;;5.32;3.25;;;18.50;90.30;;;;;;5085470;28;20082;-82